sensor_id;sensor_type;location;lat;lon;timestamp;temperature;humidity
36416;DHT22;22447;44.530;18.620;2023-04-03T00:02:08;8.60;99.90
36416;DHT22;22447;44.530;18.620;2023-04-03T00:04:33;8.70;99.90
36416;DHT22;22447;44.530;18.620;2023-04-03T00:07:00;8.70;99.90
36416;DHT22;22447;44.530;18.620;2023-04-03T00:09:25;8.70;99.90
36416;DHT22;22447;44.530;18.620;2023-04-03T00:11:51;8.70;99.90
36416;DHT22;22447;44.530;18.620;2023-04-03T00:14:17;8.70;99.90
36416;DHT22;22447;44.530;18.620;2023-04-03T00:16:43;8.70;99.90
36416;DHT22;22447;44.530;18.620;2023-04-03T00:19:09;8.70;99.90
36416;DHT22;22447;44.530;18.620;2023-04-03T00:21:37;8.70;99.90
36416;DHT22;22447;44.530;18.620;2023-04-03T00:24:03;8.80;99.90
36416;DHT22;22447;44.530;18.620;2023-04-03T00:26:29;8.80;99.90
36416;DHT22;22447;44.530;18.620;2023-04-03T00:28:54;8.90;99.90
36416;DHT22;22447;44.530;18.620;2023-04-03T00:31:21;8.90;99.90
36416;DHT22;22447;44.530;18.620;2023-04-03T00:33:47;8.90;99.90
36416;DHT22;22447;44.530;18.620;2023-04-03T00:36:13;9.10;99.90
36416;DHT22;22447;44.530;18.620;2023-04-03T00:38:39;9.10;99.90
36416;DHT22;22447;44.530;18.620;2023-04-03T00:41:05;9.20;99.90
36416;DHT22;22447;44.530;18.620;2023-04-03T00:43:31;9.20;99.90
36416;DHT22;22447;44.530;18.620;2023-04-03T00:45:57;9.30;99.90
36416;DHT22;22447;44.530;18.620;2023-04-03T00:50:49;9.20;99.90
36416;DHT22;22447;44.530;18.620;2023-04-03T00:53:17;9.00;99.90
36416;DHT22;22447;44.530;18.620;2023-04-03T00:55:45;9.00;99.90
36416;DHT22;22447;44.530;18.620;2023-04-03T00:58:12;9.00;99.90
36416;DHT22;22447;44.530;18.620;2023-04-03T01:00:39;9.00;99.90
36416;DHT22;22447;44.530;18.620;2023-04-03T01:03:06;9.10;99.90
36416;DHT22;22447;44.530;18.620;2023-04-03T01:05:32;9.10;99.90
36416;DHT22;22447;44.530;18.620;2023-04-03T01:07:58;8.80;99.90
36416;DHT22;22447;44.530;18.620;2023-04-03T01:10:25;8.80;99.90
36416;DHT22;22447;44.530;18.620;2023-04-03T01:12:51;8.80;99.90
36416;DHT22;22447;44.530;18.620;2023-04-03T01:15:24;8.80;99.90
36416;DHT22;22447;44.530;18.620;2023-04-03T01:17:54;8.80;99.90
36416;DHT22;22447;44.530;18.620;2023-04-03T01:25:31;8.70;99.90
36416;DHT22;22447;44.530;18.620;2023-04-03T01:27:58;8.60;99.90
36416;DHT22;22447;44.530;18.620;2023-04-03T01:30:25;8.50;99.90
36416;DHT22;22447;44.530;18.620;2023-04-03T01:32:53;8.40;99.90
36416;DHT22;22447;44.530;18.620;2023-04-03T01:35:19;8.30;99.90
36416;DHT22;22447;44.530;18.620;2023-04-03T01:37:45;8.40;99.90
36416;DHT22;22447;44.530;18.620;2023-04-03T01:40:11;8.30;99.90
36416;DHT22;22447;44.530;18.620;2023-04-03T01:42:37;8.40;99.90
36416;DHT22;22447;44.530;18.620;2023-04-03T01:45:03;8.40;99.90
36416;DHT22;22447;44.530;18.620;2023-04-03T01:47:29;8.20;99.90
36416;DHT22;22447;44.530;18.620;2023-04-03T01:49:55;8.10;99.90
36416;DHT22;22447;44.530;18.620;2023-04-03T01:52:21;8.10;99.90
36416;DHT22;22447;44.530;18.620;2023-04-03T01:54:47;7.80;99.90
36416;DHT22;22447;44.530;18.620;2023-04-03T01:57:12;7.70;99.90
36416;DHT22;22447;44.530;18.620;2023-04-03T01:59:40;7.70;99.90
36416;DHT22;22447;44.530;18.620;2023-04-03T02:02:06;7.60;99.90
36416;DHT22;22447;44.530;18.620;2023-04-03T02:04:32;7.70;99.90
36416;DHT22;22447;44.530;18.620;2023-04-03T02:06:58;7.50;99.90
36416;DHT22;22447;44.530;18.620;2023-04-03T02:09:24;7.50;99.90
36416;DHT22;22447;44.530;18.620;2023-04-03T02:11:52;7.40;99.90
36416;DHT22;22447;44.530;18.620;2023-04-03T02:14:18;7.40;99.90
36416;DHT22;22447;44.530;18.620;2023-04-03T02:16:44;7.30;99.90
36416;DHT22;22447;44.530;18.620;2023-04-03T02:19:10;7.40;99.90
36416;DHT22;22447;44.530;18.620;2023-04-03T02:21:36;7.30;99.90
36416;DHT22;22447;44.530;18.620;2023-04-03T02:24:02;7.30;99.90
36416;DHT22;22447;44.530;18.620;2023-04-03T02:26:27;7.40;99.90
36416;DHT22;22447;44.530;18.620;2023-04-03T02:28:53;7.40;99.90
36416;DHT22;22447;44.530;18.620;2023-04-03T02:31:19;7.40;99.90
36416;DHT22;22447;44.530;18.620;2023-04-03T02:33:46;7.40;99.90
36416;DHT22;22447;44.530;18.620;2023-04-03T02:36:14;7.20;99.90
36416;DHT22;22447;44.530;18.620;2023-04-03T02:38:43;7.20;99.90
36416;DHT22;22447;44.530;18.620;2023-04-03T02:41:10;7.10;99.90
36416;DHT22;22447;44.530;18.620;2023-04-03T02:43:37;7.10;99.90
36416;DHT22;22447;44.530;18.620;2023-04-03T02:46:04;7.10;99.90
36416;DHT22;22447;44.530;18.620;2023-04-03T02:48:30;7.10;99.90
36416;DHT22;22447;44.530;18.620;2023-04-03T02:50:56;7.20;99.90
36416;DHT22;22447;44.530;18.620;2023-04-03T02:53:22;7.10;99.90
36416;DHT22;22447;44.530;18.620;2023-04-03T02:55:49;7.10;99.90
36416;DHT22;22447;44.530;18.620;2023-04-03T02:58:15;7.00;99.90
36416;DHT22;22447;44.530;18.620;2023-04-03T03:00:41;7.00;99.90
36416;DHT22;22447;44.530;18.620;2023-04-03T03:03:07;7.00;99.90
36416;DHT22;22447;44.530;18.620;2023-04-03T03:05:33;6.80;99.90
36416;DHT22;22447;44.530;18.620;2023-04-03T03:07:59;6.70;99.90
36416;DHT22;22447;44.530;18.620;2023-04-03T03:10:25;6.60;99.90
36416;DHT22;22447;44.530;18.620;2023-04-03T03:12:50;6.60;99.90
36416;DHT22;22447;44.530;18.620;2023-04-03T03:15:16;6.60;99.90
36416;DHT22;22447;44.530;18.620;2023-04-03T03:17:43;6.50;99.90
36416;DHT22;22447;44.530;18.620;2023-04-03T03:20:09;6.60;99.90
36416;DHT22;22447;44.530;18.620;2023-04-03T03:22:35;6.50;99.90
36416;DHT22;22447;44.530;18.620;2023-04-03T03:25:01;6.50;99.90
36416;DHT22;22447;44.530;18.620;2023-04-03T03:27:27;6.50;99.90
36416;DHT22;22447;44.530;18.620;2023-04-03T03:29:53;6.40;99.90
36416;DHT22;22447;44.530;18.620;2023-04-03T03:32:20;6.50;99.90
36416;DHT22;22447;44.530;18.620;2023-04-03T03:34:45;6.50;99.90
36416;DHT22;22447;44.530;18.620;2023-04-03T03:37:11;6.50;99.90
36416;DHT22;22447;44.530;18.620;2023-04-03T03:39:37;6.50;99.90
36416;DHT22;22447;44.530;18.620;2023-04-03T03:42:03;6.50;99.90
36416;DHT22;22447;44.530;18.620;2023-04-03T03:44:29;6.40;99.90
36416;DHT22;22447;44.530;18.620;2023-04-03T03:46:55;6.40;99.90
36416;DHT22;22447;44.530;18.620;2023-04-03T03:49:21;6.40;99.90
36416;DHT22;22447;44.530;18.620;2023-04-03T03:51:47;6.30;99.90
36416;DHT22;22447;44.530;18.620;2023-04-03T03:54:13;6.30;99.90
36416;DHT22;22447;44.530;18.620;2023-04-03T03:56:39;6.20;99.90
36416;DHT22;22447;44.530;18.620;2023-04-03T03:59:05;6.10;99.90
36416;DHT22;22447;44.530;18.620;2023-04-03T04:01:32;6.10;99.90
36416;DHT22;22447;44.530;18.620;2023-04-03T04:03:58;6.10;99.90
36416;DHT22;22447;44.530;18.620;2023-04-03T04:06:28;5.60;99.90
36416;DHT22;22447;44.530;18.620;2023-04-03T04:08:57;5.30;99.90
36416;DHT22;22447;44.530;18.620;2023-04-03T04:11:23;5.20;99.90
36416;DHT22;22447;44.530;18.620;2023-04-03T04:13:52;5.10;99.90
36416;DHT22;22447;44.530;18.620;2023-04-03T04:16:20;4.90;99.90
36416;DHT22;22447;44.530;18.620;2023-04-03T04:18:46;5.00;99.90
36416;DHT22;22447;44.530;18.620;2023-04-03T04:21:12;5.00;99.90
36416;DHT22;22447;44.530;18.620;2023-04-03T04:23:39;4.90;99.90
36416;DHT22;22447;44.530;18.620;2023-04-03T04:26:05;5.00;99.90
36416;DHT22;22447;44.530;18.620;2023-04-03T04:28:34;4.90;99.90
36416;DHT22;22447;44.530;18.620;2023-04-03T04:31:02;5.00;99.90
36416;DHT22;22447;44.530;18.620;2023-04-03T04:33:29;4.90;99.90
36416;DHT22;22447;44.530;18.620;2023-04-03T04:35:58;4.70;99.90
36416;DHT22;22447;44.530;18.620;2023-04-03T04:38:24;4.80;99.90
36416;DHT22;22447;44.530;18.620;2023-04-03T04:40:52;4.80;99.90
36416;DHT22;22447;44.530;18.620;2023-04-03T04:43:18;4.70;99.90
36416;DHT22;22447;44.530;18.620;2023-04-03T04:45:46;4.80;99.90
36416;DHT22;22447;44.530;18.620;2023-04-03T04:48:13;4.80;99.90
36416;DHT22;22447;44.530;18.620;2023-04-03T04:50:39;5.00;99.90
36416;DHT22;22447;44.530;18.620;2023-04-03T04:53:05;5.00;99.90
36416;DHT22;22447;44.530;18.620;2023-04-03T04:55:31;4.80;99.90
36416;DHT22;22447;44.530;18.620;2023-04-03T04:57:57;4.70;99.90
36416;DHT22;22447;44.530;18.620;2023-04-03T05:00:23;4.60;99.90
36416;DHT22;22447;44.530;18.620;2023-04-03T05:02:49;4.50;99.90
36416;DHT22;22447;44.530;18.620;2023-04-03T05:05:17;4.60;99.90
36416;DHT22;22447;44.530;18.620;2023-04-03T05:07:43;4.60;99.90
36416;DHT22;22447;44.530;18.620;2023-04-03T05:10:09;4.70;99.90
36416;DHT22;22447;44.530;18.620;2023-04-03T05:12:35;4.60;99.90
36416;DHT22;22447;44.530;18.620;2023-04-03T05:15:03;4.60;99.90
36416;DHT22;22447;44.530;18.620;2023-04-03T05:17:30;4.70;99.90
36416;DHT22;22447;44.530;18.620;2023-04-03T05:19:57;4.70;99.90
36416;DHT22;22447;44.530;18.620;2023-04-03T05:22:25;4.80;99.90
36416;DHT22;22447;44.530;18.620;2023-04-03T05:24:54;4.50;99.90
36416;DHT22;22447;44.530;18.620;2023-04-03T05:27:20;4.50;99.90
36416;DHT22;22447;44.530;18.620;2023-04-03T05:29:52;4.50;99.90
36416;DHT22;22447;44.530;18.620;2023-04-03T05:32:20;4.40;99.90
36416;DHT22;22447;44.530;18.620;2023-04-03T05:34:50;4.50;99.90
36416;DHT22;22447;44.530;18.620;2023-04-03T05:37:18;4.40;99.90
36416;DHT22;22447;44.530;18.620;2023-04-03T05:39:45;4.40;99.90
36416;DHT22;22447;44.530;18.620;2023-04-03T05:42:12;4.40;99.90
36416;DHT22;22447;44.530;18.620;2023-04-03T05:44:38;4.50;99.90
36416;DHT22;22447;44.530;18.620;2023-04-03T05:47:04;4.50;99.90
36416;DHT22;22447;44.530;18.620;2023-04-03T05:49:30;4.70;99.90
36416;DHT22;22447;44.530;18.620;2023-04-03T05:51:56;4.70;99.90
36416;DHT22;22447;44.530;18.620;2023-04-03T05:54:26;4.60;99.90
36416;DHT22;22447;44.530;18.620;2023-04-03T05:56:57;4.70;99.90
36416;DHT22;22447;44.530;18.620;2023-04-03T05:59:24;4.70;99.90
36416;DHT22;22447;44.530;18.620;2023-04-03T06:01:52;4.70;99.90
36416;DHT22;22447;44.530;18.620;2023-04-03T06:04:18;4.70;99.90
36416;DHT22;22447;44.530;18.620;2023-04-03T06:06:49;4.70;99.90
36416;DHT22;22447;44.530;18.620;2023-04-03T06:09:17;4.80;99.90
36416;DHT22;22447;44.530;18.620;2023-04-03T06:11:43;4.80;99.90
36416;DHT22;22447;44.530;18.620;2023-04-03T06:14:09;4.80;99.90
36416;DHT22;22447;44.530;18.620;2023-04-03T06:16:35;5.00;99.90
36416;DHT22;22447;44.530;18.620;2023-04-03T06:19:01;5.00;99.90
36416;DHT22;22447;44.530;18.620;2023-04-03T06:21:27;5.00;99.90
36416;DHT22;22447;44.530;18.620;2023-04-03T06:23:53;5.10;99.90
36416;DHT22;22447;44.530;18.620;2023-04-03T06:26:19;5.10;99.90
36416;DHT22;22447;44.530;18.620;2023-04-03T06:28:48;5.10;99.90
36416;DHT22;22447;44.530;18.620;2023-04-03T06:31:13;5.20;99.90
36416;DHT22;22447;44.530;18.620;2023-04-03T06:33:39;5.10;99.90
36416;DHT22;22447;44.530;18.620;2023-04-03T06:36:05;5.20;99.90
36416;DHT22;22447;44.530;18.620;2023-04-03T06:38:32;5.20;99.90
36416;DHT22;22447;44.530;18.620;2023-04-03T06:40:58;5.30;99.90
36416;DHT22;22447;44.530;18.620;2023-04-03T06:43:24;5.40;99.90
36416;DHT22;22447;44.530;18.620;2023-04-03T06:45:50;5.30;99.90
36416;DHT22;22447;44.530;18.620;2023-04-03T06:48:16;5.20;99.90
36416;DHT22;22447;44.530;18.620;2023-04-03T06:50:42;5.40;99.90
36416;DHT22;22447;44.530;18.620;2023-04-03T06:53:08;5.40;99.90
36416;DHT22;22447;44.530;18.620;2023-04-03T06:55:34;5.50;99.90
36416;DHT22;22447;44.530;18.620;2023-04-03T06:58:01;5.50;99.90
36416;DHT22;22447;44.530;18.620;2023-04-03T07:00:27;5.50;99.90
36416;DHT22;22447;44.530;18.620;2023-04-03T07:02:53;5.50;99.90
36416;DHT22;22447;44.530;18.620;2023-04-03T07:05:19;5.50;99.90
36416;DHT22;22447;44.530;18.620;2023-04-03T07:07:44;5.70;99.90
36416;DHT22;22447;44.530;18.620;2023-04-03T07:10:10;5.70;99.90
36416;DHT22;22447;44.530;18.620;2023-04-03T07:12:42;5.60;99.90
36416;DHT22;22447;44.530;18.620;2023-04-03T07:15:10;5.80;99.90
36416;DHT22;22447;44.530;18.620;2023-04-03T07:17:38;5.80;99.90
36416;DHT22;22447;44.530;18.620;2023-04-03T07:20:04;5.60;99.90
36416;DHT22;22447;44.530;18.620;2023-04-03T07:22:30;5.70;99.90
36416;DHT22;22447;44.530;18.620;2023-04-03T07:24:56;5.80;99.90
36416;DHT22;22447;44.530;18.620;2023-04-03T07:27:22;5.60;99.90
36416;DHT22;22447;44.530;18.620;2023-04-03T07:29:48;5.70;99.90
36416;DHT22;22447;44.530;18.620;2023-04-03T07:32:14;5.70;99.90
36416;DHT22;22447;44.530;18.620;2023-04-03T07:34:40;5.80;99.90
36416;DHT22;22447;44.530;18.620;2023-04-03T07:37:06;5.80;99.90
36416;DHT22;22447;44.530;18.620;2023-04-03T07:39:32;5.80;99.90
36416;DHT22;22447;44.530;18.620;2023-04-03T07:41:58;5.70;99.90
36416;DHT22;22447;44.530;18.620;2023-04-03T07:44:24;5.80;99.90
36416;DHT22;22447;44.530;18.620;2023-04-03T07:46:50;5.70;99.90
36416;DHT22;22447;44.530;18.620;2023-04-03T07:49:16;5.70;99.90
36416;DHT22;22447;44.530;18.620;2023-04-03T07:51:43;5.80;99.90
36416;DHT22;22447;44.530;18.620;2023-04-03T07:54:09;5.80;99.90
36416;DHT22;22447;44.530;18.620;2023-04-03T07:56:36;5.70;99.90
36416;DHT22;22447;44.530;18.620;2023-04-03T07:59:02;5.80;99.90
36416;DHT22;22447;44.530;18.620;2023-04-03T08:01:27;5.80;99.90
36416;DHT22;22447;44.530;18.620;2023-04-03T08:03:54;5.90;99.90
36416;DHT22;22447;44.530;18.620;2023-04-03T08:06:23;5.90;99.90
36416;DHT22;22447;44.530;18.620;2023-04-03T08:08:48;6.00;99.90
36416;DHT22;22447;44.530;18.620;2023-04-03T08:11:14;6.00;99.90
36416;DHT22;22447;44.530;18.620;2023-04-03T08:13:40;6.00;99.90
36416;DHT22;22447;44.530;18.620;2023-04-03T08:16:17;6.10;99.90
36416;DHT22;22447;44.530;18.620;2023-04-03T08:18:43;6.20;99.90
36416;DHT22;22447;44.530;18.620;2023-04-03T08:21:09;6.30;99.90
36416;DHT22;22447;44.530;18.620;2023-04-03T08:23:36;6.10;99.90
36416;DHT22;22447;44.530;18.620;2023-04-03T08:26:20;6.10;99.90
36416;DHT22;22447;44.530;18.620;2023-04-03T08:28:47;6.20;99.90
36416;DHT22;22447;44.530;18.620;2023-04-03T08:31:17;6.10;99.90
36416;DHT22;22447;44.530;18.620;2023-04-03T08:33:46;6.20;99.90
36416;DHT22;22447;44.530;18.620;2023-04-03T08:36:19;6.10;99.90
36416;DHT22;22447;44.530;18.620;2023-04-03T08:38:46;6.10;99.90
36416;DHT22;22447;44.530;18.620;2023-04-03T08:41:16;6.10;99.90
36416;DHT22;22447;44.530;18.620;2023-04-03T08:46:11;6.20;99.90
36416;DHT22;22447;44.530;18.620;2023-04-03T08:48:42;6.10;99.90
36416;DHT22;22447;44.530;18.620;2023-04-03T08:51:15;6.20;99.90
36416;DHT22;22447;44.530;18.620;2023-04-03T08:53:44;6.10;99.90
36416;DHT22;22447;44.530;18.620;2023-04-03T08:56:11;6.20;99.90
36416;DHT22;22447;44.530;18.620;2023-04-03T08:58:47;6.10;99.90
36416;DHT22;22447;44.530;18.620;2023-04-03T09:01:17;6.10;99.90
36416;DHT22;22447;44.530;18.620;2023-04-03T09:03:47;6.00;99.90
36416;DHT22;22447;44.530;18.620;2023-04-03T09:09:06;6.00;99.90
36416;DHT22;22447;44.530;18.620;2023-04-03T09:14:14;5.90;99.90
36416;DHT22;22447;44.530;18.620;2023-04-03T09:16:54;5.90;99.90
36416;DHT22;22447;44.530;18.620;2023-04-03T09:19:22;5.90;99.90
36416;DHT22;22447;44.530;18.620;2023-04-03T09:21:51;6.10;99.90
36416;DHT22;22447;44.530;18.620;2023-04-03T09:24:17;6.10;99.90
36416;DHT22;22447;44.530;18.620;2023-04-03T09:26:48;6.10;99.90
36416;DHT22;22447;44.530;18.620;2023-04-03T09:29:17;6.20;99.90
36416;DHT22;22447;44.530;18.620;2023-04-03T09:31:44;6.30;99.90
36416;DHT22;22447;44.530;18.620;2023-04-03T09:34:32;6.30;99.90
36416;DHT22;22447;44.530;18.620;2023-04-03T09:36:59;6.30;99.90
36416;DHT22;22447;44.530;18.620;2023-04-03T09:39:31;6.30;99.90
36416;DHT22;22447;44.530;18.620;2023-04-03T09:44:31;6.30;99.90
36416;DHT22;22447;44.530;18.620;2023-04-03T09:46:59;6.50;99.90
36416;DHT22;22447;44.530;18.620;2023-04-03T09:49:26;6.40;99.90
36416;DHT22;22447;44.530;18.620;2023-04-03T09:51:55;6.40;99.90
36416;DHT22;22447;44.530;18.620;2023-04-03T09:54:34;6.30;99.90
36416;DHT22;22447;44.530;18.620;2023-04-03T09:57:10;6.50;99.90
36416;DHT22;22447;44.530;18.620;2023-04-03T09:59:39;6.60;99.90
36416;DHT22;22447;44.530;18.620;2023-04-03T10:04:41;6.60;99.90
36416;DHT22;22447;44.530;18.620;2023-04-03T10:07:30;6.60;99.90
36416;DHT22;22447;44.530;18.620;2023-04-03T10:09:57;6.60;99.90
36416;DHT22;22447;44.530;18.620;2023-04-03T10:12:23;6.70;99.90
36416;DHT22;22447;44.530;18.620;2023-04-03T10:24:56;6.60;99.90
36416;DHT22;22447;44.530;18.620;2023-04-03T10:30:36;6.50;99.90
36416;DHT22;22447;44.530;18.620;2023-04-03T10:32:53;6.50;99.90
36416;DHT22;22447;44.530;18.620;2023-04-03T10:38:01;6.60;99.90
36416;DHT22;22447;44.530;18.620;2023-04-03T10:43:02;6.70;99.90
36416;DHT22;22447;44.530;18.620;2023-04-03T10:48:12;6.70;99.90
36416;DHT22;22447;44.530;18.620;2023-04-03T10:55:53;6.70;99.90
36416;DHT22;22447;44.530;18.620;2023-04-03T10:58:32;6.70;99.90
36416;DHT22;22447;44.530;18.620;2023-04-03T11:01:11;6.80;99.90
36416;DHT22;22447;44.530;18.620;2023-04-03T11:03:40;6.70;99.90
36416;DHT22;22447;44.530;18.620;2023-04-03T11:06:08;6.80;99.90
36416;DHT22;22447;44.530;18.620;2023-04-03T11:11:17;6.80;99.90
36416;DHT22;22447;44.530;18.620;2023-04-03T11:13:49;6.80;99.90
36416;DHT22;22447;44.530;18.620;2023-04-03T11:16:19;6.70;99.90
36416;DHT22;22447;44.530;18.620;2023-04-03T11:18:48;6.70;99.90
36416;DHT22;22447;44.530;18.620;2023-04-03T11:21:22;6.70;99.90
36416;DHT22;22447;44.530;18.620;2023-04-03T11:23:51;6.70;99.90
36416;DHT22;22447;44.530;18.620;2023-04-03T11:26:20;6.80;99.90
36416;DHT22;22447;44.530;18.620;2023-04-03T11:28:51;6.80;99.90
36416;DHT22;22447;44.530;18.620;2023-04-03T11:36:29;6.60;99.90
36416;DHT22;22447;44.530;18.620;2023-04-03T11:39:00;6.70;99.90
36416;DHT22;22447;44.530;18.620;2023-04-03T11:41:28;6.80;99.90
36416;DHT22;22447;44.530;18.620;2023-04-03T11:46:22;6.80;99.90
36416;DHT22;22447;44.530;18.620;2023-04-03T11:48:49;6.70;99.90
36416;DHT22;22447;44.530;18.620;2023-04-03T11:53:46;6.70;99.90
36416;DHT22;22447;44.530;18.620;2023-04-03T12:01:50;6.50;99.90
36416;DHT22;22447;44.530;18.620;2023-04-03T12:04:17;6.40;99.90
36416;DHT22;22447;44.530;18.620;2023-04-03T12:09:25;6.50;99.90
36416;DHT22;22447;44.530;18.620;2023-04-03T12:11:53;6.50;99.90
36416;DHT22;22447;44.530;18.620;2023-04-03T12:14:19;6.50;99.90
36416;DHT22;22447;44.530;18.620;2023-04-03T12:16:47;6.50;99.90
36416;DHT22;22447;44.530;18.620;2023-04-03T12:26:51;6.50;99.90
36416;DHT22;22447;44.530;18.620;2023-04-03T12:29:27;6.60;99.90
36416;DHT22;22447;44.530;18.620;2023-04-03T12:37:09;6.60;99.90
36416;DHT22;22447;44.530;18.620;2023-04-03T12:44:51;6.60;99.90
36416;DHT22;22447;44.530;18.620;2023-04-03T12:47:31;6.60;99.90
36416;DHT22;22447;44.530;18.620;2023-04-03T12:49:59;6.60;99.90
36416;DHT22;22447;44.530;18.620;2023-04-03T12:52:33;6.60;99.90
36416;DHT22;22447;44.530;18.620;2023-04-03T12:55:01;6.40;99.90
36416;DHT22;22447;44.530;18.620;2023-04-03T12:57:29;6.40;99.90
36416;DHT22;22447;44.530;18.620;2023-04-03T12:59:56;6.50;99.90
36416;DHT22;22447;44.530;18.620;2023-04-03T13:02:24;6.40;99.90
36416;DHT22;22447;44.530;18.620;2023-04-03T13:04:51;6.40;99.90
36416;DHT22;22447;44.530;18.620;2023-04-03T13:07:25;6.50;99.90
36416;DHT22;22447;44.530;18.620;2023-04-03T13:10:09;6.50;99.90
36416;DHT22;22447;44.530;18.620;2023-04-03T13:12:51;6.50;99.90
36416;DHT22;22447;44.530;18.620;2023-04-03T13:15:19;6.50;99.90
36416;DHT22;22447;44.530;18.620;2023-04-03T13:17:45;6.50;99.90
36416;DHT22;22447;44.530;18.620;2023-04-03T13:20:16;6.60;99.90
36416;DHT22;22447;44.530;18.620;2023-04-03T13:23:05;6.50;99.90
36416;DHT22;22447;44.530;18.620;2023-04-03T13:25:31;6.60;99.90
36416;DHT22;22447;44.530;18.620;2023-04-03T13:27:59;6.50;99.90
36416;DHT22;22447;44.530;18.620;2023-04-03T13:30:32;6.50;99.90
36416;DHT22;22447;44.530;18.620;2023-04-03T13:32:59;6.60;99.90
36416;DHT22;22447;44.530;18.620;2023-04-03T13:37:58;6.40;99.90
36416;DHT22;22447;44.530;18.620;2023-04-03T13:40:24;6.40;99.90
36416;DHT22;22447;44.530;18.620;2023-04-03T13:43:04;6.50;99.90
36416;DHT22;22447;44.530;18.620;2023-04-03T13:45:31;6.40;99.90
36416;DHT22;22447;44.530;18.620;2023-04-03T13:50:59;6.60;99.90
36416;DHT22;22447;44.530;18.620;2023-04-03T13:53:25;6.60;99.90
36416;DHT22;22447;44.530;18.620;2023-04-03T13:55:54;6.60;99.90
36416;DHT22;22447;44.530;18.620;2023-04-03T13:58:24;6.70;99.90
36416;DHT22;22447;44.530;18.620;2023-04-03T14:00:52;6.60;99.90
36416;DHT22;22447;44.530;18.620;2023-04-03T14:03:39;6.70;99.90
36416;DHT22;22447;44.530;18.620;2023-04-03T14:06:06;6.70;99.90
36416;DHT22;22447;44.530;18.620;2023-04-03T14:08:32;6.70;99.90
36416;DHT22;22447;44.530;18.620;2023-04-03T14:10:58;6.70;99.90
36416;DHT22;22447;44.530;18.620;2023-04-03T14:13:24;6.70;99.90
36416;DHT22;22447;44.530;18.620;2023-04-03T14:15:49;6.80;99.90
36416;DHT22;22447;44.530;18.620;2023-04-03T14:18:17;6.90;99.90
36416;DHT22;22447;44.530;18.620;2023-04-03T14:20:44;6.80;99.90
36416;DHT22;22447;44.530;18.620;2023-04-03T14:23:09;6.80;99.90
36416;DHT22;22447;44.530;18.620;2023-04-03T14:25:36;6.80;99.90
36416;DHT22;22447;44.530;18.620;2023-04-03T14:28:16;6.80;99.90
36416;DHT22;22447;44.530;18.620;2023-04-03T14:30:43;6.80;99.90
36416;DHT22;22447;44.530;18.620;2023-04-03T14:33:11;6.70;99.90
36416;DHT22;22447;44.530;18.620;2023-04-03T14:35:38;6.70;99.90
36416;DHT22;22447;44.530;18.620;2023-04-03T14:38:05;6.70;99.90
36416;DHT22;22447;44.530;18.620;2023-04-03T14:40:37;6.80;99.90
36416;DHT22;22447;44.530;18.620;2023-04-03T14:43:03;6.70;99.90
36416;DHT22;22447;44.530;18.620;2023-04-03T14:45:29;6.80;99.90
36416;DHT22;22447;44.530;18.620;2023-04-03T14:47:55;6.70;99.90
36416;DHT22;22447;44.530;18.620;2023-04-03T14:50:25;6.80;99.90
36416;DHT22;22447;44.530;18.620;2023-04-03T14:52:52;6.80;99.90
36416;DHT22;22447;44.530;18.620;2023-04-03T14:55:20;6.90;99.90
36416;DHT22;22447;44.530;18.620;2023-04-03T14:57:46;6.90;99.90
36416;DHT22;22447;44.530;18.620;2023-04-03T15:00:13;6.90;99.90
36416;DHT22;22447;44.530;18.620;2023-04-03T15:02:39;6.90;99.90
36416;DHT22;22447;44.530;18.620;2023-04-03T15:05:06;6.90;99.90
36416;DHT22;22447;44.530;18.620;2023-04-03T15:07:37;6.80;99.90
36416;DHT22;22447;44.530;18.620;2023-04-03T15:10:09;6.90;99.90
36416;DHT22;22447;44.530;18.620;2023-04-03T15:12:39;6.90;99.90
36416;DHT22;22447;44.530;18.620;2023-04-03T15:15:05;7.00;99.90
36416;DHT22;22447;44.530;18.620;2023-04-03T15:17:30;7.00;99.90
36416;DHT22;22447;44.530;18.620;2023-04-03T15:19:56;7.00;99.90
36416;DHT22;22447;44.530;18.620;2023-04-03T15:22:23;7.00;99.90
36416;DHT22;22447;44.530;18.620;2023-04-03T15:24:49;6.90;99.90
36416;DHT22;22447;44.530;18.620;2023-04-03T15:27:15;7.00;99.90
36416;DHT22;22447;44.530;18.620;2023-04-03T15:29:41;6.90;99.90
36416;DHT22;22447;44.530;18.620;2023-04-03T15:32:07;6.90;99.90
36416;DHT22;22447;44.530;18.620;2023-04-03T15:34:34;6.80;99.90
36416;DHT22;22447;44.530;18.620;2023-04-03T15:37:00;6.90;99.90
36416;DHT22;22447;44.530;18.620;2023-04-03T15:39:26;6.80;99.90
36416;DHT22;22447;44.530;18.620;2023-04-03T15:41:52;6.80;99.90
36416;DHT22;22447;44.530;18.620;2023-04-03T15:44:19;6.90;99.90
36416;DHT22;22447;44.530;18.620;2023-04-03T15:46:48;6.90;99.90
36416;DHT22;22447;44.530;18.620;2023-04-03T15:49:17;6.80;99.90
36416;DHT22;22447;44.530;18.620;2023-04-03T15:51:43;6.70;99.90
36416;DHT22;22447;44.530;18.620;2023-04-03T15:54:10;6.70;99.90
36416;DHT22;22447;44.530;18.620;2023-04-03T15:56:35;6.60;99.90
36416;DHT22;22447;44.530;18.620;2023-04-03T15:59:01;6.70;99.90
36416;DHT22;22447;44.530;18.620;2023-04-03T16:01:27;6.70;99.90
36416;DHT22;22447;44.530;18.620;2023-04-03T16:03:54;6.70;99.90
36416;DHT22;22447;44.530;18.620;2023-04-03T16:06:20;6.60;99.90
36416;DHT22;22447;44.530;18.620;2023-04-03T16:08:46;6.70;99.90
36416;DHT22;22447;44.530;18.620;2023-04-03T16:11:13;6.80;99.90
36416;DHT22;22447;44.530;18.620;2023-04-03T16:13:39;6.80;99.90
36416;DHT22;22447;44.530;18.620;2023-04-03T16:16:05;6.80;99.90
36416;DHT22;22447;44.530;18.620;2023-04-03T16:18:31;6.80;99.90
36416;DHT22;22447;44.530;18.620;2023-04-03T16:20:57;6.70;99.90
36416;DHT22;22447;44.530;18.620;2023-04-03T16:23:23;6.70;99.90
36416;DHT22;22447;44.530;18.620;2023-04-03T16:25:49;6.60;99.90
36416;DHT22;22447;44.530;18.620;2023-04-03T16:28:15;6.60;99.90
36416;DHT22;22447;44.530;18.620;2023-04-03T16:30:43;6.50;99.90
36416;DHT22;22447;44.530;18.620;2023-04-03T16:33:09;6.50;99.90
36416;DHT22;22447;44.530;18.620;2023-04-03T16:35:36;6.50;99.90
36416;DHT22;22447;44.530;18.620;2023-04-03T16:38:02;6.70;99.90
36416;DHT22;22447;44.530;18.620;2023-04-03T16:40:27;6.70;99.90
36416;DHT22;22447;44.530;18.620;2023-04-03T16:42:53;6.70;99.90
36416;DHT22;22447;44.530;18.620;2023-04-03T16:45:19;6.60;99.90
36416;DHT22;22447;44.530;18.620;2023-04-03T16:47:45;6.60;99.90
36416;DHT22;22447;44.530;18.620;2023-04-03T16:50:11;6.60;99.90
36416;DHT22;22447;44.530;18.620;2023-04-03T16:52:36;6.60;99.90
36416;DHT22;22447;44.530;18.620;2023-04-03T16:55:02;6.60;99.90
36416;DHT22;22447;44.530;18.620;2023-04-03T16:57:28;6.60;99.90
36416;DHT22;22447;44.530;18.620;2023-04-03T16:59:56;6.50;99.90
36416;DHT22;22447;44.530;18.620;2023-04-03T17:02:22;6.50;99.90
36416;DHT22;22447;44.530;18.620;2023-04-03T17:04:52;6.40;99.90